createdAt,value
2018-06-28T00:00:11.918Z,17.45
2018-06-28T00:02:41.213Z,17.45
2018-06-28T00:05:10.800Z,17.45
2018-06-28T00:07:42.293Z,17.45
2018-06-28T00:10:11.743Z,17.42
2018-06-28T00:12:41.294Z,17.42
2018-06-28T00:15:10.674Z,17.43
2018-06-28T00:17:40.177Z,17.43
2018-06-28T00:20:09.687Z,17.43
2018-06-28T00:22:39.234Z,17.45
2018-06-28T00:25:08.716Z,17.47
2018-06-28T00:27:38.198Z,17.49
2018-06-28T00:30:07.595Z,17.49
2018-06-28T00:32:37.011Z,17.47
2018-06-28T00:35:06.749Z,17.49
2018-06-28T00:37:36.191Z,17.51
2018-06-28T00:40:06.620Z,17.52
2018-06-28T00:42:36.074Z,17.50
2018-06-28T00:45:05.538Z,17.44
2018-06-28T00:47:35.086Z,17.40
2018-06-28T00:50:04.843Z,17.36
2018-06-28T00:52:34.289Z,17.31
2018-06-28T00:55:04.074Z,17.27
2018-06-28T00:57:33.561Z,17.20
2018-06-28T01:00:03.099Z,17.15
2018-06-28T01:02:32.406Z,17.08
2018-06-28T01:05:01.908Z,17.01
2018-06-28T01:07:31.286Z,16.97
2018-06-28T01:10:00.622Z,16.93
2018-06-28T01:12:30.090Z,16.92
2018-06-28T01:14:59.613Z,16.88
2018-06-28T01:17:29.046Z,16.88
2018-06-28T01:19:58.745Z,16.87
2018-06-28T01:22:28.381Z,16.84
2018-06-28T01:24:57.705Z,16.81
2018-06-28T01:27:27.372Z,16.80
2018-06-28T01:29:56.871Z,16.77
2018-06-28T01:32:27.598Z,16.77
2018-06-28T01:34:57.346Z,16.77
2018-06-28T01:37:26.880Z,16.74
2018-06-28T01:39:56.354Z,16.75
2018-06-28T01:43:44.491Z,16.76
2018-06-28T01:46:14.110Z,16.75
2018-06-28T01:48:43.813Z,16.75
2018-06-28T01:51:13.302Z,16.75
2018-06-28T01:53:42.786Z,16.74
2018-06-28T01:56:12.257Z,16.77
2018-06-28T01:58:41.680Z,16.79
2018-06-28T02:01:11.337Z,16.78
2018-06-28T02:03:41.790Z,16.78
2018-06-28T02:06:11.413Z,16.77
2018-06-28T02:08:41.970Z,16.77
2018-06-28T02:11:11.285Z,16.75
2018-06-28T02:13:40.838Z,16.74
2018-06-28T02:16:10.294Z,16.74
2018-06-28T02:18:39.733Z,16.73
2018-06-28T02:21:09.057Z,16.71
2018-06-28T02:23:38.489Z,16.70
2018-06-28T02:26:08.048Z,16.69
2018-06-28T02:28:37.527Z,16.68
2018-06-28T02:31:07.262Z,16.69
2018-06-28T02:33:36.882Z,16.66
2018-06-28T02:36:06.434Z,16.69
2018-06-28T02:38:35.872Z,16.72
2018-06-28T02:41:05.533Z,16.76
2018-06-28T02:43:35.045Z,16.78
2018-06-28T02:46:04.514Z,16.80
2018-06-28T02:48:34.135Z,16.82
2018-06-28T02:51:03.653Z,16.84
2018-06-28T02:53:33.038Z,16.86
2018-06-28T02:56:03.427Z,16.86
2018-06-28T02:58:32.910Z,16.85
2018-06-28T03:01:02.398Z,16.84
2018-06-28T03:03:31.891Z,16.85
2018-06-28T03:06:01.473Z,16.84
2018-06-28T03:08:31.332Z,16.87
2018-06-28T03:11:00.993Z,16.85
2018-06-28T03:13:30.281Z,16.85
2018-06-28T03:15:59.854Z,16.84
2018-06-28T03:18:29.466Z,16.82
2018-06-28T03:20:59.044Z,16.81
2018-06-28T03:23:28.609Z,16.82
2018-06-28T03:25:58.096Z,16.81
2018-06-28T03:28:27.618Z,16.82
2018-06-28T03:30:57.140Z,16.84
2018-06-28T03:33:26.531Z,16.84
2018-06-28T03:35:56.237Z,16.86
2018-06-28T03:38:25.660Z,16.87
2018-06-28T03:40:55.275Z,16.90
2018-06-28T03:43:25.664Z,16.91
2018-06-28T03:45:55.129Z,16.93
2018-06-28T03:48:24.627Z,16.95
2018-06-28T03:50:53.925Z,16.97
2018-06-28T03:53:23.418Z,17.02
2018-06-28T03:55:52.929Z,17.05
2018-06-28T03:58:22.326Z,17.05
2018-06-28T04:00:52.190Z,17.05
2018-06-28T04:03:21.801Z,17.08
2018-06-28T04:05:51.360Z,17.09
2018-06-28T04:08:20.826Z,17.10
2018-06-28T04:10:50.402Z,17.14
2018-06-28T04:13:19.755Z,17.17
2018-06-28T04:15:48.982Z,17.20
2018-06-28T04:18:18.454Z,17.21
2018-06-28T04:20:47.877Z,17.23
2018-06-28T04:23:17.365Z,17.25
2018-06-28T04:25:46.743Z,17.24
2018-06-28T04:28:16.205Z,17.26
2018-06-28T04:30:45.580Z,17.28
2018-06-28T04:33:15.144Z,17.29
2018-06-28T04:35:44.582Z,17.34
2018-06-28T04:38:13.923Z,17.36
2018-06-28T04:40:43.365Z,17.40
2018-06-28T04:43:12.765Z,17.43
2018-06-28T04:45:42.136Z,17.42
2018-06-28T04:48:11.684Z,17.43
2018-06-28T04:50:41.146Z,17.43
2018-06-28T04:53:10.719Z,17.43
2018-06-28T04:55:40.188Z,17.42
2018-06-28T04:58:09.800Z,17.42
2018-06-28T05:00:40.130Z,17.42
2018-06-28T05:03:10.169Z,17.41
2018-06-28T05:05:40.305Z,17.42
2018-06-28T05:08:09.534Z,17.44
2018-06-28T05:10:38.921Z,17.45
2018-06-28T05:13:08.511Z,17.49
2018-06-28T05:15:58.122Z,17.54
2018-06-28T05:18:27.603Z,17.61
2018-06-28T05:20:57.136Z,17.63
2018-06-28T05:23:26.878Z,17.65
2018-06-28T05:25:56.340Z,17.68
2018-06-28T05:28:26.039Z,17.70
2018-06-28T05:30:55.427Z,17.68
2018-06-28T05:33:26.932Z,17.69
2018-06-28T05:35:56.326Z,17.69
2018-06-28T05:38:25.764Z,17.69
2018-06-28T05:40:55.250Z,17.70
2018-06-28T05:43:24.682Z,17.73
2018-06-28T05:45:54.266Z,17.76
2018-06-28T05:48:23.773Z,17.79
2018-06-28T05:50:53.255Z,17.81
2018-06-28T05:53:22.514Z,17.84
2018-06-28T05:55:52.025Z,17.84
2018-06-28T05:58:21.590Z,17.87
2018-06-28T06:00:50.908Z,17.90
2018-06-28T06:03:20.379Z,17.95
2018-06-28T06:05:49.911Z,17.97
2018-06-28T06:08:19.473Z,17.99
2018-06-28T06:10:48.974Z,18.05
2018-06-28T06:13:18.431Z,18.10
2018-06-28T06:15:47.968Z,18.14
2018-06-28T06:18:17.850Z,18.20
2018-06-28T06:20:47.364Z,18.24
2018-06-28T06:23:16.675Z,18.30
2018-06-28T06:25:45.953Z,18.37
2018-06-28T06:28:15.418Z,18.43
2018-06-28T06:30:45.128Z,18.47
2018-06-28T06:33:14.710Z,18.52
2018-06-28T06:35:44.152Z,18.58
2018-06-28T06:38:14.577Z,18.59
2018-06-28T06:40:45.313Z,18.58
2018-06-28T06:43:14.799Z,18.63
2018-06-28T06:45:44.089Z,18.69
2018-06-28T06:48:13.925Z,18.75
2018-06-28T06:50:43.433Z,18.82
2018-06-28T06:53:12.789Z,18.88
2018-06-28T06:55:42.305Z,18.91
2018-06-28T06:58:11.848Z,18.95
2018-06-28T07:00:41.269Z,18.98
2018-06-28T07:03:10.750Z,18.99
2018-06-28T07:05:40.271Z,19.01
2018-06-28T07:08:09.783Z,19.02
2018-06-28T07:10:40.231Z,19.02
2018-06-28T07:13:09.843Z,19.00
2018-06-28T07:15:39.124Z,19.01
2018-06-28T07:18:08.746Z,19.02
2018-06-28T07:20:38.064Z,19.02
2018-06-28T07:23:07.960Z,19.00
2018-06-28T07:25:37.506Z,19.04
2018-06-28T07:28:06.937Z,19.05
2018-06-28T07:30:36.290Z,19.12
2018-06-28T07:33:05.789Z,19.12
2018-06-28T07:35:35.419Z,19.13
2018-06-28T07:38:05.192Z,19.13
2018-06-28T07:40:34.794Z,19.14
2018-06-28T07:43:04.419Z,19.11
2018-06-28T07:45:33.796Z,19.11
2018-06-28T07:48:03.617Z,19.08
2018-06-28T07:50:33.183Z,19.12
2018-06-28T07:53:02.715Z,19.13
2018-06-28T07:55:32.358Z,19.12
2018-06-28T07:58:01.938Z,19.04
2018-06-28T08:00:32.169Z,18.97
2018-06-28T08:03:01.621Z,18.88
2018-06-28T08:05:31.280Z,18.79
2018-06-28T08:08:00.583Z,18.65
2018-06-28T08:10:30.089Z,18.48
2018-06-28T08:12:59.527Z,18.33
2018-06-28T08:15:29.155Z,18.21
2018-06-28T08:17:58.634Z,18.06
2018-06-28T08:20:29.078Z,17.94
2018-06-28T08:22:58.454Z,17.85
2018-06-28T08:25:28.016Z,17.75
2018-06-28T08:27:57.468Z,17.72
2018-06-28T08:30:27.077Z,17.66
2018-06-28T08:32:56.389Z,17.70
2018-06-28T08:35:28.461Z,17.65
2018-06-28T08:37:58.288Z,17.69
2018-06-28T08:40:28.020Z,17.68
2018-06-28T08:42:58.510Z,17.70
2018-06-28T08:45:27.947Z,17.75
2018-06-28T08:47:57.315Z,17.76
2018-06-28T08:50:26.840Z,17.79
2018-06-28T08:52:56.396Z,17.83
2018-06-28T08:55:25.787Z,17.90
2018-06-28T08:57:55.363Z,17.93
2018-06-28T09:00:24.805Z,17.95
2018-06-28T09:02:54.156Z,18.01
2018-06-28T09:05:24.481Z,18.02
2018-06-28T09:07:54.151Z,18.03
2018-06-28T09:10:23.763Z,17.93
2018-06-28T09:12:53.249Z,17.96
2018-06-28T09:15:22.964Z,18.00
2018-06-28T09:17:52.296Z,17.99
2018-06-28T09:20:21.903Z,18.06
2018-06-28T09:22:51.554Z,18.16
2018-06-28T09:25:20.866Z,18.29
2018-06-28T09:27:50.327Z,18.43
2018-06-28T09:30:19.866Z,18.57
2018-06-28T09:32:49.335Z,18.67
2018-06-28T09:35:19.189Z,18.69
2018-06-28T09:37:48.848Z,18.63
2018-06-28T09:40:18.280Z,18.62
2018-06-28T09:42:47.901Z,18.70
2018-06-28T09:45:17.585Z,18.75
2018-06-28T09:47:46.981Z,18.80
2018-06-28T09:50:16.563Z,18.82
2018-06-28T09:52:46.157Z,18.82
2018-06-28T09:55:15.617Z,18.85
2018-06-28T09:57:46.056Z,18.84
2018-06-28T10:00:19.618Z,18.95
2018-06-28T10:02:49.019Z,19.14
2018-06-28T10:05:18.482Z,19.45
2018-06-28T10:07:47.882Z,19.75
2018-06-28T10:10:17.410Z,20.00
2018-06-28T10:12:47.003Z,20.17
2018-06-28T10:15:16.824Z,20.33
2018-06-28T10:17:46.369Z,20.46
2018-06-28T10:20:15.670Z,20.60
2018-06-28T10:22:45.141Z,20.87
2018-06-28T10:25:14.598Z,21.15
2018-06-28T10:27:44.016Z,21.42
2018-06-28T10:30:13.440Z,21.88
2018-06-28T10:32:42.988Z,22.30
2018-06-28T10:35:12.357Z,22.58
2018-06-28T10:37:41.790Z,22.74
2018-06-28T10:40:11.264Z,22.84
2018-06-28T10:42:40.691Z,22.92
2018-06-28T10:45:10.235Z,22.97
2018-06-28T10:47:39.605Z,23.07
2018-06-28T10:50:08.795Z,23.17
2018-06-28T10:52:38.336Z,23.32
2018-06-28T10:55:07.836Z,23.47
2018-06-28T10:57:37.598Z,23.80
2018-06-28T11:00:07.986Z,24.25
2018-06-28T11:02:37.514Z,24.53
2018-06-28T11:05:07.192Z,24.59
2018-06-28T11:07:36.656Z,24.55
2018-06-28T11:10:06.179Z,24.42
2018-06-28T11:12:35.622Z,24.39
2018-06-28T11:15:05.506Z,24.46
2018-06-28T11:17:35.742Z,24.49
2018-06-28T11:20:05.895Z,24.58
2018-06-28T11:22:35.322Z,24.62
2018-06-28T11:25:04.934Z,24.66
2018-06-28T11:27:37.059Z,24.35
2018-06-28T11:30:06.758Z,24.16
2018-06-28T11:32:36.198Z,23.98
2018-06-28T11:35:05.923Z,23.77
2018-06-28T11:37:35.531Z,23.65
2018-06-28T11:40:05.423Z,23.56
2018-06-28T11:42:34.982Z,23.46
2018-06-28T11:45:04.694Z,23.43
2018-06-28T11:47:34.305Z,23.40
2018-06-28T11:50:03.833Z,23.33
2018-06-28T11:52:33.249Z,23.35
2018-06-28T11:55:02.612Z,23.33
2018-06-28T11:57:32.107Z,23.37
2018-06-28T12:00:01.699Z,23.46
2018-06-28T12:02:31.397Z,23.66
2018-06-28T12:05:00.988Z,23.94
2018-06-28T12:07:30.321Z,24.18
2018-06-28T12:09:59.772Z,24.25
2018-06-28T12:12:29.650Z,24.35
2018-06-28T12:14:58.938Z,24.48
2018-06-28T12:17:28.220Z,24.58
2018-06-28T12:19:57.822Z,24.67
2018-06-28T12:22:27.239Z,24.81
2018-06-28T12:24:56.517Z,24.80
2018-06-28T12:27:26.136Z,24.69
2018-06-28T12:29:55.524Z,24.55
2018-06-28T12:32:24.736Z,24.59
2018-06-28T12:34:54.418Z,24.71
2018-06-28T12:37:23.971Z,24.78
2018-06-28T12:39:53.704Z,24.79
2018-06-28T12:42:23.203Z,24.80
2018-06-28T12:44:52.494Z,24.76
2018-06-28T12:47:50.244Z,24.73
2018-06-28T12:50:19.602Z,24.61
2018-06-28T12:53:26.825Z,24.49
2018-06-28T12:58:42.669Z,24.13
2018-06-28T13:01:12.197Z,23.98
2018-06-28T13:03:41.876Z,23.90
2018-06-28T13:06:17.572Z,24.01
2018-06-28T13:10:51.571Z,24.70
2018-06-28T13:13:21.215Z,25.08
2018-06-28T13:15:50.637Z,25.38
2018-06-28T13:18:20.309Z,25.87
2018-06-28T13:20:49.935Z,26.20
2018-06-28T13:23:19.235Z,26.46
2018-06-28T13:25:48.796Z,26.78
2018-06-28T13:28:18.328Z,27.07
2018-06-28T13:30:47.798Z,27.16
2018-06-28T13:33:17.049Z,27.34
2018-06-28T13:35:46.929Z,27.35
2018-06-28T13:38:16.283Z,27.32
2018-06-28T13:40:45.835Z,27.16
2018-06-28T13:43:15.215Z,27.03
2018-06-28T13:45:44.552Z,27.18
2018-06-28T13:48:14.050Z,27.33
2018-06-28T13:50:43.636Z,27.92
2018-06-28T13:53:12.994Z,28.39
2018-06-28T13:55:42.577Z,28.46
2018-06-28T13:58:12.378Z,28.43
2018-06-28T14:00:41.876Z,28.27
2018-06-28T14:03:11.415Z,27.94
2018-06-28T14:05:41.606Z,27.60
2018-06-28T14:08:11.249Z,27.17
2018-06-28T14:10:40.888Z,26.71
2018-06-28T14:13:10.603Z,26.41
2018-06-28T14:15:48.514Z,26.23
2018-06-28T14:25:43.447Z,25.85
2018-06-28T14:32:55.229Z,25.84
2018-06-28T14:35:25.417Z,25.79
2018-06-28T14:37:55.680Z,25.69
2018-06-28T14:40:25.812Z,25.57
2018-06-28T14:42:56.024Z,25.38
2018-06-28T14:45:26.267Z,25.31
2018-06-28T14:47:56.352Z,25.21
2018-06-28T14:50:26.461Z,25.10
2018-06-28T14:52:56.396Z,24.99
2018-06-28T14:55:26.576Z,24.94
2018-06-28T14:57:56.787Z,24.83
2018-06-28T15:00:26.747Z,24.76
2018-06-28T15:02:56.695Z,24.64
2018-06-28T15:05:26.622Z,24.38
2018-06-28T15:07:56.359Z,24.01
2018-06-28T15:10:26.391Z,23.66
2018-06-28T15:12:56.393Z,23.42
2018-06-28T15:15:26.715Z,23.22
2018-06-28T15:17:56.964Z,23.11
2018-06-28T15:20:27.215Z,22.99
2018-06-28T15:22:57.337Z,22.95
2018-06-28T15:25:27.199Z,22.92
2018-06-28T15:27:58.192Z,22.89
2018-06-28T15:30:27.961Z,22.91
2018-06-28T15:32:58.121Z,22.96
2018-06-28T15:35:27.907Z,23.01
2018-06-28T15:37:58.081Z,23.03
2018-06-28T15:40:28.277Z,23.02
2018-06-28T15:42:59.449Z,23.01
2018-06-28T15:45:30.773Z,22.98
2018-06-28T15:48:00.900Z,22.95
2018-06-28T15:50:31.882Z,22.90
2018-06-28T15:53:01.785Z,22.87
2018-06-28T15:55:31.595Z,22.85
2018-06-28T15:58:01.662Z,22.80
2018-06-28T16:00:31.726Z,22.77
2018-06-28T16:03:02.737Z,22.71
2018-06-28T16:05:32.871Z,22.69
2018-06-28T16:08:02.907Z,22.67
2018-06-28T16:10:33.232Z,22.67
2018-06-28T16:13:03.358Z,22.67
2018-06-28T16:15:33.448Z,22.70
2018-06-28T16:18:03.382Z,22.70
2018-06-28T16:20:33.476Z,22.71
2018-06-28T16:23:04.474Z,22.73
2018-06-28T16:25:34.604Z,22.78
2018-06-28T16:28:05.614Z,22.82
2018-06-28T16:30:36.595Z,22.84
2018-06-28T16:33:06.580Z,22.87
2018-06-28T16:35:36.551Z,22.91
2018-06-28T16:38:07.544Z,22.84
2018-06-28T16:40:37.690Z,22.80
2018-06-28T16:43:07.511Z,22.76
2018-06-28T16:45:37.594Z,22.75
2018-06-28T16:48:07.521Z,22.75
2018-06-28T16:50:37.473Z,22.76
2018-06-28T16:53:07.435Z,22.75
2018-06-28T16:55:37.606Z,22.75
2018-06-28T16:58:07.934Z,22.76
2018-06-28T17:00:37.606Z,22.77
2018-06-28T17:03:07.686Z,22.79
2018-06-28T17:05:37.620Z,22.84
2018-06-28T17:08:07.644Z,22.88
2018-06-28T17:10:38.639Z,22.95
2018-06-28T17:13:08.671Z,22.99
2018-06-28T17:15:39.123Z,23.07
2018-06-28T17:18:09.332Z,23.13
2018-06-28T17:20:39.394Z,23.16
2018-06-28T17:23:09.384Z,23.21
2018-06-28T17:25:39.413Z,23.22
2018-06-28T17:28:09.520Z,23.25
2018-06-28T17:30:39.460Z,23.27
2018-06-28T17:33:09.571Z,23.27
2018-06-28T17:35:39.170Z,23.25
2018-06-28T17:38:09.230Z,23.24
2018-06-28T17:40:39.208Z,23.25
2018-06-28T17:43:09.246Z,23.23
2018-06-28T17:45:39.264Z,23.21
2018-06-28T17:48:09.073Z,23.20
2018-06-28T17:50:38.970Z,23.19
2018-06-28T17:53:08.980Z,23.18
2018-06-28T17:55:39.072Z,23.16
2018-06-28T17:58:13.201Z,23.15
2018-06-28T18:00:43.126Z,23.12
2018-06-28T18:03:13.209Z,23.10
2018-06-28T18:05:43.114Z,23.08
2018-06-28T18:08:13.084Z,23.05
2018-06-28T18:10:42.954Z,23.06
2018-06-28T18:13:12.840Z,23.09
2018-06-28T18:15:43.000Z,23.14
2018-06-28T18:18:13.018Z,23.22
2018-06-28T18:20:43.140Z,23.28
2018-06-28T18:23:13.475Z,23.31
2018-06-28T18:25:43.335Z,23.31
2018-06-28T18:28:13.396Z,23.26
2018-06-28T18:30:43.460Z,23.20
2018-06-28T18:33:13.578Z,23.14
2018-06-28T18:35:43.495Z,23.05
2018-06-28T18:38:13.752Z,22.96
2018-06-28T18:40:43.772Z,22.86
2018-06-28T18:43:13.902Z,22.79
2018-06-28T18:45:43.801Z,22.73
2018-06-28T18:48:13.793Z,22.64
2018-06-28T18:50:43.704Z,22.54
2018-06-28T18:53:14.133Z,22.47
2018-06-28T18:55:43.996Z,22.41
2018-06-28T18:58:13.954Z,22.33
2018-06-28T19:00:44.008Z,22.23
2018-06-28T19:03:14.640Z,22.16
2018-06-28T19:05:44.604Z,22.10
2018-06-28T19:08:14.728Z,22.03
2018-06-28T19:10:49.470Z,21.97
2018-06-28T19:13:19.603Z,21.87
2018-06-28T19:15:54.639Z,21.79
2018-06-28T19:18:24.588Z,21.75
2018-06-28T19:20:59.523Z,21.71
2018-06-28T19:23:34.414Z,21.66
2018-06-28T19:26:04.395Z,21.62
2018-06-28T19:28:34.273Z,21.64
2018-06-28T19:31:09.010Z,21.63
2018-06-28T19:33:39.141Z,21.63
2018-06-28T19:36:09.288Z,21.60
2018-06-28T19:38:45.091Z,21.59
2018-06-28T19:41:19.792Z,21.58
2018-06-28T19:43:49.790Z,21.59
2018-06-28T19:46:19.802Z,21.59
2018-06-28T19:48:50.894Z,21.59
2018-06-28T19:51:25.685Z,21.58
2018-06-28T19:53:55.834Z,21.57
2018-06-28T19:56:25.887Z,21.53
2018-06-28T19:58:55.768Z,21.49
2018-06-28T20:01:30.928Z,21.42
2018-06-28T20:04:05.930Z,21.35
2018-06-28T20:06:35.883Z,21.28
2018-06-28T20:09:07.462Z,21.23
2018-06-28T20:11:37.613Z,21.21
2018-06-28T20:14:12.309Z,21.22
2018-06-28T20:16:47.055Z,21.24
2018-06-28T20:19:21.862Z,21.25
2018-06-28T20:21:51.931Z,21.25
2018-06-28T20:24:21.835Z,21.23
2018-06-28T20:26:56.831Z,21.21
2018-06-28T20:29:31.778Z,21.19
2018-06-28T20:32:07.834Z,21.14
2018-06-28T20:34:37.916Z,21.12
2018-06-28T20:37:07.832Z,21.09
2018-06-28T20:39:37.878Z,21.08
2018-06-28T20:42:07.768Z,21.06
2018-06-28T20:44:37.828Z,21.05
2018-06-28T20:47:07.848Z,21.05
2018-06-28T20:49:37.776Z,21.03
2018-06-28T20:52:07.844Z,21.00
2018-06-28T20:54:37.918Z,20.96
2018-06-28T20:57:08.156Z,20.92
2018-06-28T20:59:37.922Z,20.87
2018-06-28T21:02:08.045Z,20.83
2018-06-28T21:04:38.076Z,20.79
2018-06-28T21:07:08.109Z,20.72
2018-06-28T21:09:38.049Z,20.65
2018-06-28T21:12:08.083Z,20.58
2018-06-28T21:14:37.995Z,20.50
2018-06-28T21:17:08.240Z,20.44
2018-06-28T21:19:38.397Z,20.41
2018-06-28T21:22:08.450Z,20.34
2018-06-28T21:24:39.833Z,20.23
2018-06-28T21:27:10.848Z,20.13
2018-06-28T21:29:41.116Z,20.05
2018-06-28T21:32:11.183Z,19.96
2018-06-28T21:34:41.285Z,19.88
2018-06-28T21:37:11.479Z,19.81
2018-06-28T21:39:41.278Z,19.74
2018-06-28T21:42:11.324Z,19.65
2018-06-28T21:44:41.326Z,19.58
2018-06-28T21:47:11.352Z,19.54
2018-06-28T21:49:41.192Z,19.45
2018-06-28T21:52:11.144Z,19.37
2018-06-28T21:54:40.955Z,19.31
2018-06-28T21:57:11.818Z,19.26
2018-06-28T21:59:41.858Z,19.22
2018-06-28T22:02:11.647Z,19.16
2018-06-28T22:04:41.793Z,19.09
2018-06-28T22:07:11.725Z,19.05
2018-06-28T22:09:41.708Z,19.00
2018-06-28T22:12:11.707Z,18.98
2018-06-28T22:14:41.410Z,18.96
2018-06-28T22:17:11.486Z,18.96
2018-06-28T22:19:41.781Z,18.99
2018-06-28T22:22:12.287Z,19.03
2018-06-28T22:24:43.717Z,19.05
2018-06-28T22:27:13.783Z,19.09
2018-06-28T22:29:43.718Z,19.12
2018-06-28T22:32:13.637Z,19.17
2018-06-28T22:34:43.365Z,19.23
2018-06-28T22:37:13.172Z,19.28
2018-06-28T22:39:44.508Z,19.34
2018-06-28T22:42:14.459Z,19.39
2018-06-28T22:44:44.550Z,19.41
2018-06-28T22:47:14.512Z,19.40
2018-06-28T22:49:44.542Z,19.39
2018-06-28T22:52:14.652Z,19.35
2018-06-28T22:54:44.913Z,19.30
2018-06-28T22:57:14.936Z,19.25
